Central Lake, Michigan
Current Conditions -  °F | °C
As of 8:38 AM on Friday 28 Nov 2014 (Local Time) from KACB Reporting Station
Light Snow Light Snow  
Wind Chill: 10°   Ceiling: 8000
Heat Index: 18°   Visibility: 7mi
Dew Point: 13°   Wind: 6mph
Humidity: 82%   Direction: 170°S
Pressure: 30.24"   Gusts: NA
Location:  45.07°N, 85.26°W
Report Text: KACB 281338Z AUTO 17005KT 7SM -SN SCT018 SCT028 BKN080 M08/M10 A3024 RMK AO2 T10771103
Loading
Personal Weather Stations






























Interactive Weather Map New forecast layout! Learn more

10-Day Weather Forecast

Advertisements
Track Severe Weather on mobile